Time;durP1;ratioP1;P1;durP2;ratioP2;P2;SDS_P1;SDS_P2;PMS_P1;PMS_P2;Temp;Humidity;BMP_temperature;BMP_pressure;BME280_temperature;BME280_humidity;BME280_pressure;Samples;Min_cycle;Max_cycle;Signal;HPM_P1;HPM_P2
2023/02/04 00:00:14;;;;;;;;;;;;;;;;;;5035299;28;19908;-78
2023/02/04 00:02:40;;;;;;;;;;;;;;;;;;5035544;28;19915;-78
2023/02/04 00:05:05;;;;;;;;;;;;;;;;;;5053277;28;19909;-77
2023/02/04 00:07:31;;;;;;;;;;;;;;;;;;5035312;28;19909;-77
2023/02/04 00:09:57;;;;;;;;;;;;;;;;;;5035425;28;19919;-77
2023/02/04 00:12:23;;;;;;;;;;;;;;;;;;5053389;28;19909;-78
2023/02/04 00:14:49;;;;;;;;;;;;;;;;;;5052850;28;19909;-80
2023/02/04 00:17:15;;;;;;;;;;;;;;;;;;5034213;28;19916;-78
2023/02/04 00:19:41;;;;;;;;;;;;;;;;;;5035791;28;19916;-78
2023/02/04 00:22:07;;;;;;;;;;;;;;;;;;5034979;28;20316;-77
2023/02/04 00:24:33;;;;;;;;;;;;;;;;;;5034946;28;19908;-78
2023/02/04 00:26:59;;;;;;;;;;;;;;;;;;5035804;28;19909;-78
2023/02/04 00:29:25;;;;;;;;;;;;;;;;;;5034779;28;19909;-78
2023/02/04 00:31:51;;;;;;;;;;;;;;;;;;5033857;28;20361;-78
2023/02/04 00:34:19;;;;;;;;;;;;;;;;;;5035001;28;19913;-78
2023/02/04 00:36:45;;;;;;;;;;;;;;;;;;5052798;28;19909;-78
2023/02/04 00:39:11;;;;;;;;;;;;;;;;;;5035395;28;19916;-78
2023/02/04 00:41:37;;;;;;;;;;;;;;;;;;5035725;28;19917;-78
2023/02/04 00:44:03;;;;;;;;;;;;;;;;;;5036058;28;19967;-78
2023/02/04 00:46:29;;;;;;;;;;;;;;;;;;5056473;28;19971;-78
2023/02/04 00:48:55;;;;;;;;;;;;;;;;;;5057149;28;19979;-78
2023/02/04 00:51:21;;;;;;;;;;;;;;;;;;5038810;28;19955;-78
2023/02/04 00:53:47;;;;;;;;;;;;;;;;;;5057152;28;20142;-78
2023/02/04 00:56:13;;;;;;;;;;;;;;;;;;5039531;28;19967;-78
2023/02/04 00:58:38;;;;;;;;;;;;;;;;;;5038461;28;20284;-79
2023/02/04 01:01:04;;;;;;;;;;;;;;;;;;5039357;28;19916;-78
2023/02/04 01:03:30;;;;;;;;;;;;;;;;;;5039707;28;19909;-77
2023/02/04 01:05:56;;;;;;;;;;;;;;;;;;5056866;28;20381;-78
2023/02/04 01:08:22;;;;;;;;;;;;;;;;;;5039405;28;19909;-77
2023/02/04 01:10:48;;;;;;;;;;;;;;;;;;5057323;28;19984;-76
2023/02/04 01:13:14;;;;;;;;;;;;;;;;;;5056045;28;19913;-77
2023/02/04 01:15:40;;;;;;;;;;;;;;;;;;5037893;28;19909;-78
2023/02/04 01:18:06;;;;;;;;;;;;;;;;;;5038688;28;19909;-79
2023/02/04 01:20:32;;;;;;;;;;;;;;;;;;5056853;28;19909;-78
2023/02/04 01:22:58;;;;;;;;;;;;;;;;;;5056530;28;19913;-79
2023/02/04 01:25:24;;;;;;;;;;;;;;;;;;5038206;28;19913;-82
2023/02/04 01:27:49;;;;;;;;;;;;;;;;;;5055932;28;19909;-78
2023/02/04 01:30:15;;;;;;;;;;;;;;;;;;5038687;28;19916;-79
2023/02/04 01:32:41;;;;;;;;;;;;;;;;;;5055254;28;20029;-78
2023/02/04 01:35:07;;;;;;;;;;;;;;;;;;5056082;28;19913;-79
2023/02/04 01:37:33;;;;;;;;;;;;;;;;;;5038218;28;19909;-78
2023/02/04 01:39:59;;;;;;;;;;;;;;;;;;5056278;28;19908;-78
2023/02/04 01:42:25;;;;;;;;;;;;;;;;;;5056083;28;19917;-79
2023/02/04 01:44:51;;;;;;;;;;;;;;;;;;5038317;28;20366;-78
2023/02/04 01:47:17;;;;;;;;;;;;;;;;;;5057321;28;19959;-76
2023/02/04 01:49:42;;;;;;;;;;;;;;;;;;5039199;28;19909;-76
2023/02/04 01:52:08;;;;;;;;;;;;;;;;;;5039149;28;19946;-77
2023/02/04 01:54:34;;;;;;;;;;;;;;;;;;5036585;28;19913;-77
2023/02/04 01:57:00;;;;;;;;;;;;;;;;;;5036480;28;20281;-77
2023/02/04 01:59:26;;;;;;;;;;;;;;;;;;5037576;28;20291;-77
2023/02/04 02:01:52;;;;;;;;;;;;;;;;;;5037576;28;19916;-79
2023/02/04 02:04:18;;;;;;;;;;;;;;;;;;5038236;28;20454;-78
2023/02/04 02:06:44;;;;;;;;;;;;;;;;;;5055558;28;20000;-77
2023/02/04 02:09:10;;;;;;;;;;;;;;;;;;5038200;28;19999;-77
2023/02/04 02:11:36;;;;;;;;;;;;;;;;;;5038376;28;19909;-78
2023/02/04 02:14:01;;;;;;;;;;;;;;;;;;5055482;28;19913;-77
2023/02/04 02:16:27;;;;;;;;;;;;;;;;;;5037622;28;20392;-77
2023/02/04 02:18:53;;;;;;;;;;;;;;;;;;5037505;28;19909;-77
2023/02/04 02:21:19;;;;;;;;;;;;;;;;;;5037906;28;19974;-77
2023/02/04 02:23:45;;;;;;;;;;;;;;;;;;5055410;28;20000;-77
2023/02/04 02:26:11;;;;;;;;;;;;;;;;;;5054790;28;19909;-78
2023/02/04 02:28:37;;;;;;;;;;;;;;;;;;5036664;28;19932;-78
2023/02/04 02:31:03;;;;;;;;;;;;;;;;;;5036037;28;19928;-77
2023/02/04 02:33:29;;;;;;;;;;;;;;;;;;5054797;28;19913;-79
2023/02/04 02:35:54;;;;;;;;;;;;;;;;;;5053305;28;19909;-79
2023/02/04 02:38:20;;;;;;;;;;;;;;;;;;5053901;28;19909;-77
2023/02/04 02:40:46;;;;;;;;;;;;;;;;;;5037189;28;19912;-77
2023/02/04 02:43:12;;;;;;;;;;;;;;;;;;5036670;28;19983;-77
2023/02/04 02:45:38;;;;;;;;;;;;;;;;;;5054438;28;19934;-77
2023/02/04 02:48:04;;;;;;;;;;;;;;;;;;5036808;28;19909;-77
2023/02/04 02:50:30;;;;;;;;;;;;;;;;;;5037353;28;20355;-77
2023/02/04 02:52:56;;;;;;;;;;;;;;;;;;5036929;28;19913;-78
2023/02/04 02:55:22;;;;;;;;;;;;;;;;;;5054051;28;19908;-76
2023/02/04 02:57:48;;;;;;;;;;;;;;;;;;5054195;28;19916;-77
2023/02/04 03:00:13;;;;;;;;;;;;;;;;;;5036842;28;19909;-77
2023/02/04 03:02:39;;;;;;;;;;;;;;;;;;5036740;28;19915;-77
2023/02/04 03:05:05;;;;;;;;;;;;;;;;;;5054248;28;19909;-77
2023/02/04 03:07:31;;;;;;;;;;;;;;;;;;5036057;28;19947;-77
2023/02/04 03:09:57;;;;;;;;;;;;;;;;;;5036463;28;19913;-77
2023/02/04 03:12:23;;;;;;;;;;;;;;;;;;5036056;28;19912;-77
2023/02/04 03:14:49;;;;;;;;;;;;;;;;;;5035874;28;19960;-77
2023/02/04 03:17:15;;;;;;;;;;;;;;;;;;5035502;28;19959;-78
2023/02/04 03:19:41;;;;;;;;;;;;;;;;;;5052473;28;19995;-77
2023/02/04 03:22:07;;;;;;;;;;;;;;;;;;5054124;28;19915;-78
2023/02/04 03:24:33;;;;;;;;;;;;;;;;;;5053971;28;19909;-77
2023/02/04 03:26:58;;;;;;;;;;;;;;;;;;5036029;28;19920;-79
2023/02/04 03:29:24;;;;;;;;;;;;;;;;;;5052073;28;19909;-77
2023/02/04 03:31:50;;;;;;;;;;;;;;;;;;5035976;28;19909;-77
2023/02/04 03:34:16;;;;;;;;;;;;;;;;;;5036283;28;19913;-77
2023/02/04 03:36:42;;;;;;;;;;;;;;;;;;5035607;28;20041;-77
2023/02/04 03:39:08;;;;;;;;;;;;;;;;;;5053294;28;19913;-77
2023/02/04 03:41:34;;;;;;;;;;;;;;;;;;5053413;28;19908;-77
2023/02/04 03:44:00;;;;;;;;;;;;;;;;;;5054227;28;19912;-76
2023/02/04 03:46:27;;;;;;;;;;;;;;;;;;5053593;28;19959;-76
2023/02/04 03:48:53;;;;;;;;;;;;;;;;;;5053945;28;20381;-76
2023/02/04 03:51:19;;;;;;;;;;;;;;;;;;5054736;28;19962;-76
2023/02/04 03:53:45;;;;;;;;;;;;;;;;;;5036501;28;19913;-76
2023/02/04 03:56:10;;;;;;;;;;;;;;;;;;5035974;28;20277;-75
2023/02/04 03:58:36;;;;;;;;;;;;;;;;;;5035000;28;19919;-75
2023/02/04 04:01:02;;;;;;;;;;;;;;;;;;5036058;28;19909;-76
2023/02/04 04:03:28;;;;;;;;;;;;;;;;;;5036266;28;20272;-75
2023/02/04 04:05:54;;;;;;;;;;;;;;;;;;5035888;28;19909;-76
2023/02/04 04:08:20;;;;;;;;;;;;;;;;;;5035741;28;19948;-76
2023/02/04 04:10:46;;;;;;;;;;;;;;;;;;5034623;28;20389;-76
2023/02/04 04:13:14;;;;;;;;;;;;;;;;;;5035868;28;21598;-76
2023/02/04 04:15:39;;;;;;;;;;;;;;;;;;5036144;28;19916;-77
2023/02/04 04:18:05;;;;;;;;;;;;;;;;;;5053930;28;19909;-75
2023/02/04 04:20:31;;;;;;;;;;;;;;;;;;5039366;28;20349;-77
2023/02/04 04:22:57;;;;;;;;;;;;;;;;;;5042325;28;19909;-76
2023/02/04 04:25:23;;;;;;;;;;;;;;;;;;5042090;28;19909;-76
2023/02/04 04:27:49;;;;;;;;;;;;;;;;;;5060034;28;19909;-76
2023/02/04 04:30:15;;;;;;;;;;;;;;;;;;5042551;28;19908;-75
2023/02/04 04:32:41;;;;;;;;;;;;;;;;;;5042453;28;19909;-76
2023/02/04 04:35:07;;;;;;;;;;;;;;;;;;5060265;28;19916;-76
2023/02/04 04:37:34;;;;;;;;;;;;;;;;;;5060377;28;20493;-76
2023/02/04 04:40:00;;;;;;;;;;;;;;;;;;5041660;28;19936;-76
2023/02/04 04:42:26;;;;;;;;;;;;;;;;;;5060258;28;19956;-75
2023/02/04 04:44:52;;;;;;;;;;;;;;;;;;5060062;28;19912;-76
2023/02/04 04:47:18;;;;;;;;;;;;;;;;;;5042093;28;19936;-76
2023/02/04 04:49:44;;;;;;;;;;;;;;;;;;5060417;28;20440;-76
2023/02/04 04:52:10;;;;;;;;;;;;;;;;;;5042478;28;19919;-76
2023/02/04 04:54:35;;;;;;;;;;;;;;;;;;5042182;28;19912;-76
2023/02/04 04:57:01;;;;;;;;;;;;;;;;;;5042086;28;19908;-78
2023/02/04 04:59:27;;;;;;;;;;;;;;;;;;5059597;28;20401;-77
2023/02/04 05:01:53;;;;;;;;;;;;;;;;;;5042608;28;19913;-78
2023/02/04 05:04:19;;;;;;;;;;;;;;;;;;5060283;28;19915;-77
2023/02/04 05:06:45;;;;;;;;;;;;;;;;;;5060402;28;20364;-76
2023/02/04 05:09:11;;;;;;;;;;;;;;;;;;5060198;28;19909;-77
2023/02/04 05:11:37;;;;;;;;;;;;;;;;;;5040358;28;19915;-77
2023/02/04 05:14:03;;;;;;;;;;;;;;;;;;5060670;28;20365;-76
2023/02/04 05:16:29;;;;;;;;;;;;;;;;;;5041885;28;19963;-75
2023/02/04 05:18:55;;;;;;;;;;;;;;;;;;5041724;28;19915;-77
2023/02/04 05:21:20;;;;;;;;;;;;;;;;;;5060161;28;19909;-77
2023/02/04 05:23:46;;;;;;;;;;;;;;;;;;5059256;28;20395;-76
2023/02/04 05:26:12;;;;;;;;;;;;;;;;;;5041391;28;19962;-75
2023/02/04 05:28:38;;;;;;;;;;;;;;;;;;5059742;28;19917;-77
2023/02/04 05:31:04;;;;;;;;;;;;;;;;;;5041262;28;19920;-77
2023/02/04 05:33:30;;;;;;;;;;;;;;;;;;5037401;28;19913;-76
2023/02/04 05:35:56;;;;;;;;;;;;;;;;;;5037989;28;19967;-76
2023/02/04 05:38:22;;;;;;;;;;;;;;;;;;5038039;28;19909;-77
2023/02/04 05:40:48;;;;;;;;;;;;;;;;;;5056739;28;19919;-76
2023/02/04 05:43:14;;;;;;;;;;;;;;;;;;5056393;28;19916;-76
2023/02/04 05:45:40;;;;;;;;;;;;;;;;;;5056544;28;19919;-75
2023/02/04 05:48:05;;;;;;;;;;;;;;;;;;5056064;28;19909;-76
2023/02/04 05:50:31;;;;;;;;;;;;;;;;;;5056550;28;19908;-76
2023/02/04 05:52:57;;;;;;;;;;;;;;;;;;5056538;28;19917;-75
2023/02/04 05:55:23;;;;;;;;;;;;;;;;;;5038974;28;20373;-75
2023/02/04 05:57:49;;;;;;;;;;;;;;;;;;5038887;28;20002;-77
2023/02/04 06:00:15;;;;;;;;;;;;;;;;;;5038516;28;20050;-76
2023/02/04 06:02:41;;;;;;;;;;;;;;;;;;5038626;28;19909;-75
2023/02/04 06:05:07;;;;;;;;;;;;;;;;;;5038547;28;19909;-77
2023/02/04 06:07:33;;;;;;;;;;;;;;;;;;5036959;28;19912;-77
2023/02/04 06:09:58;;;;;;;;;;;;;;;;;;5037448;28;19967;-75
2023/02/04 06:12:24;;;;;;;;;;;;;;;;;;5037728;28;20380;-77
2023/02/04 06:14:50;;;;;;;;;;;;;;;;;;5056038;28;19919;-76
2023/02/04 06:17:16;;;;;;;;;;;;;;;;;;5038121;28;19909;-76
2023/02/04 06:19:42;;;;;;;;;;;;;;;;;;5056129;28;20416;-76
2023/02/04 06:22:08;;;;;;;;;;;;;;;;;;5038358;28;19912;-76
2023/02/04 06:24:34;;;;;;;;;;;;;;;;;;5037496;28;19984;-77
2023/02/04 06:27:00;;;;;;;;;;;;;;;;;;5055746;28;19992;-76
2023/02/04 06:29:26;;;;;;;;;;;;;;;;;;5038538;28;19908;-77
2023/02/04 06:31:52;;;;;;;;;;;;;;;;;;5039890;28;20366;-76
2023/02/04 06:34:17;;;;;;;;;;;;;;;;;;5039893;28;19916;-75
2023/02/04 06:36:43;;;;;;;;;;;;;;;;;;5036937;28;19920;-76
2023/02/04 06:39:09;;;;;;;;;;;;;;;;;;5037644;28;20007;-76
2023/02/04 06:41:35;;;;;;;;;;;;;;;;;;5037639;28;19909;-77
2023/02/04 06:44:01;;;;;;;;;;;;;;;;;;5037641;28;19917;-77
2023/02/04 06:46:27;;;;;;;;;;;;;;;;;;5054860;28;20468;-75
2023/02/04 06:48:53;;;;;;;;;;;;;;;;;;5040144;28;19952;-77
2023/02/04 06:51:19;;;;;;;;;;;;;;;;;;5040095;28;20251;-76
2023/02/04 06:53:45;;;;;;;;;;;;;;;;;;5056848;28;19912;-77
2023/02/04 06:56:11;;;;;;;;;;;;;;;;;;5038747;28;19916;-76
2023/02/04 06:58:36;;;;;;;;;;;;;;;;;;5039158;28;19909;-74
2023/02/04 07:01:02;;;;;;;;;;;;;;;;;;5057833;28;19916;-77
2023/02/04 07:03:28;;;;;;;;;;;;;;;;;;5057752;28;19920;-77
2023/02/04 07:05:54;;;;;;;;;;;;;;;;;;5037813;28;19948;-77
2023/02/04 07:08:23;;;;;;;;;;;;;;;;;;5037944;28;19984;-75
2023/02/04 07:10:49;;;;;;;;;;;;;;;;;;5056450;28;19936;-76
2023/02/04 07:13:15;;;;;;;;;;;;;;;;;;5036419;28;19913;-77
2023/02/04 07:15:41;;;;;;;;;;;;;;;;;;5055017;28;19943;-77
2023/02/04 07:18:07;;;;;;;;;;;;;;;;;;5037944;28;19909;-77
2023/02/04 07:20:33;;;;;;;;;;;;;;;;;;5037577;28;19909;-77
2023/02/04 07:22:59;;;;;;;;;;;;;;;;;;5055215;28;19920;-77
2023/02/04 07:25:25;;;;;;;;;;;;;;;;;;5055005;28;20370;-76
2023/02/04 07:27:51;;;;;;;;;;;;;;;;;;5037018;28;19915;-76
2023/02/04 07:30:16;;;;;;;;;;;;;;;;;;5037339;28;19909;-77
2023/02/04 07:32:42;;;;;;;;;;;;;;;;;;5054899;28;19913;-75
2023/02/04 07:35:08;;;;;;;;;;;;;;;;;;5054596;28;20355;-75
2023/02/04 07:37:34;;;;;;;;;;;;;;;;;;5036492;28;19913;-75
2023/02/04 07:40:00;;;;;;;;;;;;;;;;;;5037998;28;19913;-77
2023/02/04 07:42:26;;;;;;;;;;;;;;;;;;5036611;28;20380;-76
2023/02/04 07:44:52;;;;;;;;;;;;;;;;;;5036763;28;19909;-76
2023/02/04 07:47:18;;;;;;;;;;;;;;;;;;5053324;28;19919;-76
2023/02/04 07:49:44;;;;;;;;;;;;;;;;;;5037137;28;19931;-76
2023/02/04 07:52:11;;;;;;;;;;;;;;;;;;5054340;28;19909;-79
2023/02/04 07:54:37;;;;;;;;;;;;;;;;;;5053181;28;19919;-77
2023/02/04 07:57:03;;;;;;;;;;;;;;;;;;5036914;28;19908;-77
2023/02/04 07:59:28;;;;;;;;;;;;;;;;;;5035981;28;19913;-77
2023/02/04 08:01:54;;;;;;;;;;;;;;;;;;5054680;28;20278;-76
2023/02/04 08:04:20;;;;;;;;;;;;;;;;;;5036831;28;19908;-76
2023/02/04 08:06:46;;;;;;;;;;;;;;;;;;5037689;28;20011;-76
2023/02/04 08:09:12;;;;;;;;;;;;;;;;;;5038105;28;20764;-76
2023/02/04 08:11:38;;;;;;;;;;;;;;;;;;5039194;28;19920;-76
2023/02/04 08:14:04;;;;;;;;;;;;;;;;;;5038807;28;19919;-75
2023/02/04 08:16:30;;;;;;;;;;;;;;;;;;5056411;28;19908;-78
2023/02/04 08:18:56;;;;;;;;;;;;;;;;;;5038328;28;19948;-77
2023/02/04 08:21:22;;;;;;;;;;;;;;;;;;5056459;28;19955;-75
2023/02/04 08:23:47;;;;;;;;;;;;;;;;;;5037808;28;20120;-76
2023/02/04 08:26:13;;;;;;;;;;;;;;;;;;5055830;28;19958;-76
2023/02/04 08:28:39;;;;;;;;;;;;;;;;;;5037621;28;19956;-76
2023/02/04 08:31:05;;;;;;;;;;;;;;;;;;5055469;28;19935;-77
2023/02/04 08:33:31;;;;;;;;;;;;;;;;;;5055277;28;19920;-74
2023/02/04 08:35:57;;;;;;;;;;;;;;;;;;5054925;28;19909;-76
2023/02/04 08:38:23;;;;;;;;;;;;;;;;;;5054768;28;19965;-76
2023/02/04 08:40:49;;;;;;;;;;;;;;;;;;5055387;28;19909;-78
2023/02/04 08:43:15;;;;;;;;;;;;;;;;;;5036079;28;20293;-75
2023/02/04 08:45:41;;;;;;;;;;;;;;;;;;5037229;28;19917;-75
2023/02/04 08:48:08;;;;;;;;;;;;;;;;;;5035052;28;19956;-76
2023/02/04 08:50:34;;;;;;;;;;;;;;;;;;5036429;28;19916;-76
2023/02/04 08:53:00;;;;;;;;;;;;;;;;;;5035939;28;19913;-77
2023/02/04 08:55:26;;;;;;;;;;;;;;;;;;5035958;28;19942;-76
2023/02/04 08:57:51;;;;;;;;;;;;;;;;;;5053798;28;20373;-76
2023/02/04 09:00:17;;;;;;;;;;;;;;;;;;5054108;28;19951;-76
2023/02/04 09:02:43;;;;;;;;;;;;;;;;;;5036924;28;19944;-77
2023/02/04 09:05:09;;;;;;;;;;;;;;;;;;5036067;28;19916;-76
2023/02/04 09:07:35;;;;;;;;;;;;;;;;;;5038738;28;19909;-76
2023/02/04 09:10:01;;;;;;;;;;;;;;;;;;5056627;28;20348;-77
2023/02/04 09:12:27;;;;;;;;;;;;;;;;;;5056866;28;19936;-77
2023/02/04 09:14:53;;;;;;;;;;;;;;;;;;5056416;28;19913;-77
2023/02/04 09:17:19;;;;;;;;;;;;;;;;;;5038305;28;20396;-77
2023/02/04 09:19:45;;;;;;;;;;;;;;;;;;5038571;28;19916;-77
2023/02/04 09:22:12;;;;;;;;;;;;;;;;;;5038740;28;20378;-78
2023/02/04 09:24:37;;;;;;;;;;;;;;;;;;5056686;28;19909;-78
2023/02/04 09:27:03;;;;;;;;;;;;;;;;;;5039476;28;20266;-76
2023/02/04 09:29:29;;;;;;;;;;;;;;;;;;5056824;28;19909;-76
2023/02/04 09:31:55;;;;;;;;;;;;;;;;;;5040265;28;19909;-76
2023/02/04 09:34:21;;;;;;;;;;;;;;;;;;5057663;28;20019;-73
2023/02/04 09:36:47;;;;;;;;;;;;;;;;;;5038992;28;19908;-76
2023/02/04 09:39:13;;;;;;;;;;;;;;;;;;5055285;28;19909;-77
2023/02/04 09:41:39;;;;;;;;;;;;;;;;;;5039614;28;20285;-76
2023/02/04 09:44:19;;;;;;;;;;;;;;;;;;5159563;22;19925;-80
2023/02/04 09:46:45;;;;;;;;;;;;;;;;;;5073220;28;19913;-79
2023/02/04 09:49:11;;;;;;;;;;;;;;;;;;5046149;28;19974;-77
2023/02/04 09:51:37;;;;;;;;;;;;;;;;;;5055231;28;19909;-80
2023/02/04 09:54:03;;;;;;;;;;;;;;;;;;5055099;28;19920;-77
2023/02/04 09:56:29;;;;;;;;;;;;;;;;;;5037297;28;19920;-79
2023/02/04 09:58:55;;;;;;;;;;;;;;;;;;5039937;28;19908;-79
2023/02/04 10:01:21;;;;;;;;;;;;;;;;;;5037596;28;19915;-79
2023/02/04 10:03:47;;;;;;;;;;;;;;;;;;5055380;28;19909;-79
2023/02/04 10:06:13;;;;;;;;;;;;;;;;;;5036651;28;19995;-78
2023/02/04 10:08:39;;;;;;;;;;;;;;;;;;5055306;28;20361;-78
2023/02/04 10:11:04;;;;;;;;;;;;;;;;;;5038293;28;20333;-77
2023/02/04 10:13:31;;;;;;;;;;;;;;;;;;5056828;28;20369;-78
2023/02/04 10:15:57;;;;;;;;;;;;;;;;;;5036333;28;19909;-78
2023/02/04 10:18:23;;;;;;;;;;;;;;;;;;5035106;28;20007;-76
2023/02/04 10:20:48;;;;;;;;;;;;;;;;;;5036420;28;19916;-77
2023/02/04 10:23:14;;;;;;;;;;;;;;;;;;5054498;28;19912;-78
2023/02/04 10:25:40;;;;;;;;;;;;;;;;;;5036417;28;19909;-78
2023/02/04 10:28:06;;;;;;;;;;;;;;;;;;5053919;28;20012;-77
2023/02/04 10:30:34;;;;;;;;;;;;;;;;;;5055133;28;19931;-79
2023/02/04 10:33:00;;;;;;;;;;;;;;;;;;5040833;28;19913;-79
2023/02/04 10:35:25;;;;;;;;;;;;;;;;;;5036495;28;19909;-79
2023/02/04 10:37:51;;;;;;;;;;;;;;;;;;5054150;28;19915;-80
2023/02/04 10:40:17;;;;;;;;;;;;;;;;;;5036998;28;19915;-79
2023/02/04 10:42:43;;;;;;;;;;;;;;;;;;5036040;28;20282;-79
2023/02/04 10:45:09;;;;;;;;;;;;;;;;;;5053560;28;19920;-78
2023/02/04 10:47:35;;;;;;;;;;;;;;;;;;5035555;28;19954;-78
2023/02/04 10:50:07;;;;;;;;;;;;;;;;;;5035864;28;20377;-78
2023/02/04 10:52:33;;;;;;;;;;;;;;;;;;5035551;28;19909;-77
2023/02/04 10:54:59;;;;;;;;;;;;;;;;;;5035365;28;20662;-77
2023/02/04 10:57:25;;;;;;;;;;;;;;;;;;5035451;28;19909;-76
2023/02/04 10:59:51;;;;;;;;;;;;;;;;;;5035600;28;19909;-77
2023/02/04 11:02:16;;;;;;;;;;;;;;;;;;5033174;28;19913;-76
2023/02/04 11:04:42;;;;;;;;;;;;;;;;;;5052324;28;19909;-78
2023/02/04 11:07:08;;;;;;;;;;;;;;;;;;5035560;28;19916;-76
2023/02/04 11:09:34;;;;;;;;;;;;;;;;;;5052978;28;19913;-77
2023/02/04 11:12:00;;;;;;;;;;;;;;;;;;5053168;28;20281;-76
2023/02/04 11:14:27;;;;;;;;;;;;;;;;;;5035221;28;19979;-77
2023/02/04 11:16:53;;;;;;;;;;;;;;;;;;5035382;28;19909;-77
2023/02/04 11:19:19;;;;;;;;;;;;;;;;;;5035307;28;19999;-77
2023/02/04 11:21:45;;;;;;;;;;;;;;;;;;5034893;28;19967;-78
2023/02/04 11:24:11;;;;;;;;;;;;;;;;;;5053067;28;19910;-77
2023/02/04 11:26:37;;;;;;;;;;;;;;;;;;5052610;28;19909;-78
2023/02/04 11:29:03;;;;;;;;;;;;;;;;;;5034834;28;19916;-78
2023/02/04 11:31:32;;;;;;;;;;;;;;;;;;5046645;28;19913;-80
2023/02/04 11:33:59;;;;;;;;;;;;;;;;;;5058443;28;19913;-81
2023/02/04 11:36:25;;;;;;;;;;;;;;;;;;5065646;28;19916;-80
2023/02/04 11:38:51;;;;;;;;;;;;;;;;;;5062335;28;20365;-80
2023/02/04 11:41:17;;;;;;;;;;;;;;;;;;5041361;28;19976;-80
2023/02/04 11:43:43;;;;;;;;;;;;;;;;;;5041124;28;19984;-80
2023/02/04 11:46:08;;;;;;;;;;;;;;;;;;5039397;28;19952;-80
2023/02/04 11:48:34;;;;;;;;;;;;;;;;;;5038829;28;20476;-79
2023/02/04 11:51:00;;;;;;;;;;;;;;;;;;5035446;28;19909;-79
2023/02/04 11:53:26;;;;;;;;;;;;;;;;;;5035075;28;19966;-79
2023/02/04 11:55:52;;;;;;;;;;;;;;;;;;5034797;28;20365;-79
2023/02/04 11:58:18;;;;;;;;;;;;;;;;;;5034844;28;19909;-79
2023/02/04 12:00:44;;;;;;;;;;;;;;;;;;5035228;28;19931;-79
2023/02/04 12:03:10;;;;;;;;;;;;;;;;;;5033716;28;19920;-79
2023/02/04 12:05:36;;;;;;;;;;;;;;;;;;5034991;28;20440;-79
2023/02/04 12:08:02;;;;;;;;;;;;;;;;;;5034722;28;19948;-79
2023/02/04 12:10:28;;;;;;;;;;;;;;;;;;5034846;28;20369;-79
2023/02/04 12:12:56;;;;;;;;;;;;;;;;;;5034683;28;20269;-79
2023/02/04 12:15:22;;;;;;;;;;;;;;;;;;5034463;28;19909;-79
2023/02/04 12:17:48;;;;;;;;;;;;;;;;;;5034736;28;19948;-79
2023/02/04 12:20:14;;;;;;;;;;;;;;;;;;5034855;28;20023;-79
2023/02/04 12:22:40;;;;;;;;;;;;;;;;;;5034902;28;19964;-79
2023/02/04 12:25:06;;;;;;;;;;;;;;;;;;5052349;28;19999;-77
2023/02/04 12:27:32;;;;;;;;;;;;;;;;;;5052343;28;20321;-79
2023/02/04 12:29:58;;;;;;;;;;;;;;;;;;5035001;28;19909;-79
2023/02/04 12:32:24;;;;;;;;;;;;;;;;;;5034893;28;19908;-79
2023/02/04 12:34:50;;;;;;;;;;;;;;;;;;5052476;28;20373;-80
2023/02/04 12:37:15;;;;;;;;;;;;;;;;;;5034542;28;19916;-80
2023/02/04 12:39:41;;;;;;;;;;;;;;;;;;5036333;28;19908;-79
2023/02/04 12:42:07;;;;;;;;;;;;;;;;;;5056644;28;20365;-79
2023/02/04 12:44:34;;;;;;;;;;;;;;;;;;5038473;28;19916;-79
2023/02/04 12:47:00;;;;;;;;;;;;;;;;;;5038995;28;19916;-79
2023/02/04 12:49:26;;;;;;;;;;;;;;;;;;5046159;28;19908;-81
2023/02/04 12:51:52;;;;;;;;;;;;;;;;;;5048945;28;20369;-79
2023/02/04 12:54:18;;;;;;;;;;;;;;;;;;5038875;28;20285;-79
2023/02/04 12:56:44;;;;;;;;;;;;;;;;;;5038529;28;19932;-80
2023/02/04 12:59:09;;;;;;;;;;;;;;;;;;5036689;28;19982;-78
2023/02/04 13:01:35;;;;;;;;;;;;;;;;;;5056476;28;20316;-79
2023/02/04 13:04:01;;;;;;;;;;;;;;;;;;5128748;22;19998;-79
2023/02/04 13:06:27;;;;;;;;;;;;;;;;;;5149650;22;19988;-80
2023/02/04 13:08:53;;;;;;;;;;;;;;;;;;5044282;28;19908;-80
2023/02/04 13:11:19;;;;;;;;;;;;;;;;;;5066988;28;19916;-81
2023/02/04 13:13:45;;;;;;;;;;;;;;;;;;5048087;28;20339;-81
2023/02/04 13:18:40;;;;;;;;;;;;;;;;;;5056600;28;19931;-77
2023/02/04 13:21:06;;;;;;;;;;;;;;;;;;5059051;28;19909;-76
2023/02/04 13:23:32;;;;;;;;;;;;;;;;;;5060315;28;20272;-79
2023/02/04 13:25:58;;;;;;;;;;;;;;;;;;5057412;28;19909;-76
2023/02/04 13:28:24;;;;;;;;;;;;;;;;;;5057211;28;19909;-79
2023/02/04 13:30:49;;;;;;;;;;;;;;;;;;5056490;28;19916;-79
2023/02/04 13:33:15;;;;;;;;;;;;;;;;;;5058394;28;19921;-78
2023/02/04 13:35:43;;;;;;;;;;;;;;;;;;5039105;28;19924;-78
2023/02/04 13:38:09;;;;;;;;;;;;;;;;;;5037998;28;19909;-78
2023/02/04 13:40:35;;;;;;;;;;;;;;;;;;5038392;28;19920;-78
2023/02/04 13:43:01;;;;;;;;;;;;;;;;;;5056223;28;20361;-78
2023/02/04 13:45:27;;;;;;;;;;;;;;;;;;5057588;28;19962;-79
2023/02/04 13:47:53;;;;;;;;;;;;;;;;;;5041153;28;19909;-78
2023/02/04 13:50:19;;;;;;;;;;;;;;;;;;5061371;28;19909;-78
2023/02/04 13:52:45;;;;;;;;;;;;;;;;;;5041803;28;19912;-79
2023/02/04 13:55:11;;;;;;;;;;;;;;;;;;5059897;28;19986;-78
2023/02/04 13:57:36;;;;;;;;;;;;;;;;;;5042057;28;19909;-77
2023/02/04 14:00:02;;;;;;;;;;;;;;;;;;5041930;28;19958;-76
2023/02/04 14:02:28;;;;;;;;;;;;;;;;;;5060457;28;19935;-79
2023/02/04 14:04:56;;;;;;;;;;;;;;;;;;5040388;28;20381;-78
2023/02/04 14:07:22;;;;;;;;;;;;;;;;;;5058296;28;20263;-76
2023/02/04 14:09:48;;;;;;;;;;;;;;;;;;5060991;28;20004;-79
2023/02/04 14:12:14;;;;;;;;;;;;;;;;;;5041735;28;19909;-78
2023/02/04 14:14:40;;;;;;;;;;;;;;;;;;5059589;28;20292;-77
2023/02/04 14:17:05;;;;;;;;;;;;;;;;;;5058574;28;19920;-76
2023/02/04 14:19:31;;;;;;;;;;;;;;;;;;5057873;28;19916;-77
2023/02/04 14:21:57;;;;;;;;;;;;;;;;;;5058759;28;19909;-78
2023/02/04 14:24:23;;;;;;;;;;;;;;;;;;5040666;28;19908;-78
2023/02/04 14:26:49;;;;;;;;;;;;;;;;;;5039784;28;20357;-76
2023/02/04 14:29:15;;;;;;;;;;;;;;;;;;5039533;28;19913;-77
2023/02/04 14:31:41;;;;;;;;;;;;;;;;;;5057664;28;20441;-78
2023/02/04 14:34:07;;;;;;;;;;;;;;;;;;5040995;28;19912;-77
2023/02/04 14:36:33;;;;;;;;;;;;;;;;;;5038706;28;19913;-78
2023/02/04 14:38:59;;;;;;;;;;;;;;;;;;5057696;28;19962;-78
2023/02/04 14:41:25;;;;;;;;;;;;;;;;;;5039286;28;19909;-78
2023/02/04 14:43:52;;;;;;;;;;;;;;;;;;5040244;28;19908;-78
2023/02/04 14:46:18;;;;;;;;;;;;;;;;;;5057476;28;19908;-78
2023/02/04 14:48:44;;;;;;;;;;;;;;;;;;5058015;28;20027;-78
2023/02/04 14:51:10;;;;;;;;;;;;;;;;;;5041627;28;19962;-78
2023/02/04 14:53:36;;;;;;;;;;;;;;;;;;5059173;28;19916;-79
2023/02/04 14:56:02;;;;;;;;;;;;;;;;;;5056464;28;19916;-78
2023/02/04 14:58:28;;;;;;;;;;;;;;;;;;5057639;28;19909;-79
2023/02/04 15:00:53;;;;;;;;;;;;;;;;;;5040669;28;19959;-78
2023/02/04 15:03:19;;;;;;;;;;;;;;;;;;5041025;28;19921;-78
2023/02/04 15:05:45;;;;;;;;;;;;;;;;;;5040228;28;19920;-78
2023/02/04 15:08:11;;;;;;;;;;;;;;;;;;5057578;28;20266;-77
2023/02/04 15:10:37;;;;;;;;;;;;;;;;;;5058134;28;19909;-78
2023/02/04 15:13:03;;;;;;;;;;;;;;;;;;5058802;28;19908;-78
2023/02/04 15:15:30;;;;;;;;;;;;;;;;;;5057931;28;19909;-78
2023/02/04 15:17:55;;;;;;;;;;;;;;;;;;5039287;28;19928;-80
2023/02/04 15:20:22;;;;;;;;;;;;;;;;;;5058460;28;19913;-77
2023/02/04 15:22:50;;;;;;;;;;;;;;;;;;5057080;28;20100;-77
2023/02/04 15:25:16;;;;;;;;;;;;;;;;;;5057061;28;20331;-78
2023/02/04 15:27:42;;;;;;;;;;;;;;;;;;5035736;28;19987;-75
2023/02/04 15:30:08;;;;;;;;;;;;;;;;;;5038975;28;19909;-76
2023/02/04 15:32:34;;;;;;;;;;;;;;;;;;5056810;28;19932;-77
2023/02/04 15:35:00;;;;;;;;;;;;;;;;;;5056779;28;19920;-77
2023/02/04 15:37:26;;;;;;;;;;;;;;;;;;5035156;28;19917;-76
2023/02/04 15:39:52;;;;;;;;;;;;;;;;;;5036546;28;19967;-75
2023/02/04 15:42:17;;;;;;;;;;;;;;;;;;5053695;28;19909;-76
2023/02/04 15:44:43;;;;;;;;;;;;;;;;;;5035500;28;19916;-77
2023/02/04 15:47:09;;;;;;;;;;;;;;;;;;5053112;28;19908;-75
2023/02/04 15:49:36;;;;;;;;;;;;;;;;;;5034512;28;19952;-76
2023/02/04 15:52:02;;;;;;;;;;;;;;;;;;5058399;28;19932;-77
2023/02/04 15:54:28;;;;;;;;;;;;;;;;;;5057228;28;19956;-77
2023/02/04 15:56:54;;;;;;;;;;;;;;;;;;5056929;28;19909;-77
2023/02/04 15:59:20;;;;;;;;;;;;;;;;;;5039483;28;19909;-77
2023/02/04 16:01:46;;;;;;;;;;;;;;;;;;5039905;28;19913;-78
2023/02/04 16:04:12;;;;;;;;;;;;;;;;;;5056042;28;19944;-77
2023/02/04 16:06:37;;;;;;;;;;;;;;;;;;5037837;28;20383;-76
2023/02/04 16:09:03;;;;;;;;;;;;;;;;;;5037557;28;19916;-76
2023/02/04 16:11:29;;;;;;;;;;;;;;;;;;5055793;28;19940;-78
2023/02/04 16:13:55;;;;;;;;;;;;;;;;;;5038013;28;19923;-77
2023/02/04 16:16:21;;;;;;;;;;;;;;;;;;5036645;28;19908;-77
2023/02/04 16:18:47;;;;;;;;;;;;;;;;;;5056451;28;19913;-77
2023/02/04 16:21:13;;;;;;;;;;;;;;;;;;5059059;28;19916;-78
2023/02/04 16:23:39;;;;;;;;;;;;;;;;;;5057828;28;19909;-78
2023/02/04 16:26:05;;;;;;;;;;;;;;;;;;5057186;28;19909;-78
2023/02/04 16:28:31;;;;;;;;;;;;;;;;;;5039639;28;19909;-77
2023/02/04 16:30:56;;;;;;;;;;;;;;;;;;5058141;28;19909;-78
2023/02/04 16:33:23;;;;;;;;;;;;;;;;;;5057596;28;19913;-78
2023/02/04 16:35:49;;;;;;;;;;;;;;;;;;5040351;28;19944;-78
2023/02/04 16:38:18;;;;;;;;;;;;;;;;;;5058277;28;19912;-78